sensor_id;sensor_type;location;lat;lon;timestamp;temperature;humidity
22968;DHT22;11650;48.106;-1.696;2023-12-29T00:02:15;9.60;99.90
22968;DHT22;11650;48.106;-1.696;2023-12-29T00:04:41;9.60;99.90
22968;DHT22;11650;48.106;-1.696;2023-12-29T00:07:07;9.60;99.90
22968;DHT22;11650;48.106;-1.696;2023-12-29T00:09:33;9.60;99.90
22968;DHT22;11650;48.106;-1.696;2023-12-29T00:12:06;9.60;99.90
22968;DHT22;11650;48.106;-1.696;2023-12-29T00:14:31;9.60;99.90
22968;DHT22;11650;48.106;-1.696;2023-12-29T00:16:57;9.60;99.90
22968;DHT22;11650;48.106;-1.696;2023-12-29T00:19:23;9.60;99.90
22968;DHT22;11650;48.106;-1.696;2023-12-29T00:21:48;9.60;99.90
22968;DHT22;11650;48.106;-1.696;2023-12-29T00:24:14;9.60;99.90
22968;DHT22;11650;48.106;-1.696;2023-12-29T00:26:39;9.60;99.90
22968;DHT22;11650;48.106;-1.696;2023-12-29T00:29:05;9.70;99.90
22968;DHT22;11650;48.106;-1.696;2023-12-29T00:31:31;9.70;99.90
22968;DHT22;11650;48.106;-1.696;2023-12-29T00:33:57;9.70;99.90
22968;DHT22;11650;48.106;-1.696;2023-12-29T00:36:23;9.80;99.90
22968;DHT22;11650;48.106;-1.696;2023-12-29T00:38:49;9.80;99.90
22968;DHT22;11650;48.106;-1.696;2023-12-29T00:41:15;9.90;99.90
22968;DHT22;11650;48.106;-1.696;2023-12-29T00:43:40;9.90;99.90
22968;DHT22;11650;48.106;-1.696;2023-12-29T00:46:07;9.80;99.90
22968;DHT22;11650;48.106;-1.696;2023-12-29T00:48:33;9.90;99.90
22968;DHT22;11650;48.106;-1.696;2023-12-29T00:51:02;10.00;99.90
22968;DHT22;11650;48.106;-1.696;2023-12-29T00:53:28;10.00;99.90
22968;DHT22;11650;48.106;-1.696;2023-12-29T00:55:54;10.00;99.90
22968;DHT22;11650;48.106;-1.696;2023-12-29T00:58:20;10.00;99.90
22968;DHT22;11650;48.106;-1.696;2023-12-29T01:00:45;10.00;99.90
22968;DHT22;11650;48.106;-1.696;2023-12-29T01:03:11;10.00;99.90
22968;DHT22;11650;48.106;-1.696;2023-12-29T01:05:36;10.00;99.90
22968;DHT22;11650;48.106;-1.696;2023-12-29T01:08:02;10.10;99.90
22968;DHT22;11650;48.106;-1.696;2023-12-29T01:10:27;10.10;99.90
22968;DHT22;11650;48.106;-1.696;2023-12-29T01:12:53;10.10;99.90
22968;DHT22;11650;48.106;-1.696;2023-12-29T01:15:18;10.10;99.90
22968;DHT22;11650;48.106;-1.696;2023-12-29T01:17:44;10.10;99.90
22968;DHT22;11650;48.106;-1.696;2023-12-29T01:20:09;10.10;99.90
22968;DHT22;11650;48.106;-1.696;2023-12-29T01:22:35;10.20;99.90
22968;DHT22;11650;48.106;-1.696;2023-12-29T01:25:01;10.20;99.90
22968;DHT22;11650;48.106;-1.696;2023-12-29T01:27:26;10.20;99.90
22968;DHT22;11650;48.106;-1.696;2023-12-29T01:29:52;10.30;99.90
22968;DHT22;11650;48.106;-1.696;2023-12-29T01:32:18;10.30;99.90
22968;DHT22;11650;48.106;-1.696;2023-12-29T01:34:44;10.20;99.90
22968;DHT22;11650;48.106;-1.696;2023-12-29T01:37:09;10.20;99.90
22968;DHT22;11650;48.106;-1.696;2023-12-29T01:39:35;10.20;99.90
22968;DHT22;11650;48.106;-1.696;2023-12-29T01:42:00;10.10;99.90
22968;DHT22;11650;48.106;-1.696;2023-12-29T01:44:26;10.00;99.90
22968;DHT22;11650;48.106;-1.696;2023-12-29T01:46:53;10.00;99.90
22968;DHT22;11650;48.106;-1.696;2023-12-29T01:49:19;10.00;99.90
22968;DHT22;11650;48.106;-1.696;2023-12-29T01:51:47;10.00;99.90
22968;DHT22;11650;48.106;-1.696;2023-12-29T01:54:14;10.00;99.90
22968;DHT22;11650;48.106;-1.696;2023-12-29T01:56:39;10.00;99.90
22968;DHT22;11650;48.106;-1.696;2023-12-29T01:59:06;9.90;99.90
22968;DHT22;11650;48.106;-1.696;2023-12-29T02:01:31;9.90;99.90
22968;DHT22;11650;48.106;-1.696;2023-12-29T02:03:57;9.90;99.90
22968;DHT22;11650;48.106;-1.696;2023-12-29T02:06:23;9.90;99.90
22968;DHT22;11650;48.106;-1.696;2023-12-29T02:08:49;9.90;99.90
22968;DHT22;11650;48.106;-1.696;2023-12-29T02:11:16;9.90;99.90
22968;DHT22;11650;48.106;-1.696;2023-12-29T02:13:42;9.90;99.90
22968;DHT22;11650;48.106;-1.696;2023-12-29T02:16:18;9.90;99.90
22968;DHT22;11650;48.106;-1.696;2023-12-29T02:18:47;9.90;99.90
22968;DHT22;11650;48.106;-1.696;2023-12-29T02:21:15;9.90;99.90
22968;DHT22;11650;48.106;-1.696;2023-12-29T02:23:40;9.90;99.90
22968;DHT22;11650;48.106;-1.696;2023-12-29T02:26:10;10.00;99.90
22968;DHT22;11650;48.106;-1.696;2023-12-29T02:28:39;10.00;99.90
22968;DHT22;11650;48.106;-1.696;2023-12-29T02:31:09;10.00;99.90
22968;DHT22;11650;48.106;-1.696;2023-12-29T02:33:37;10.00;99.90
22968;DHT22;11650;48.106;-1.696;2023-12-29T02:36:03;10.00;99.90
22968;DHT22;11650;48.106;-1.696;2023-12-29T02:38:30;10.00;99.90
22968;DHT22;11650;48.106;-1.696;2023-12-29T02:40:56;10.00;99.90
22968;DHT22;11650;48.106;-1.696;2023-12-29T02:43:22;10.00;99.90
22968;DHT22;11650;48.106;-1.696;2023-12-29T02:45:47;10.00;99.90
22968;DHT22;11650;48.106;-1.696;2023-12-29T02:48:13;10.00;99.90
22968;DHT22;11650;48.106;-1.696;2023-12-29T02:50:38;10.00;99.90
22968;DHT22;11650;48.106;-1.696;2023-12-29T02:53:03;10.00;99.90
22968;DHT22;11650;48.106;-1.696;2023-12-29T02:55:29;10.00;99.90
22968;DHT22;11650;48.106;-1.696;2023-12-29T02:57:55;9.90;99.90
22968;DHT22;11650;48.106;-1.696;2023-12-29T03:00:20;9.90;99.90
22968;DHT22;11650;48.106;-1.696;2023-12-29T03:02:46;9.90;99.90
22968;DHT22;11650;48.106;-1.696;2023-12-29T03:05:11;9.90;99.90
22968;DHT22;11650;48.106;-1.696;2023-12-29T03:07:37;9.90;99.90
22968;DHT22;11650;48.106;-1.696;2023-12-29T03:10:02;9.90;99.90
22968;DHT22;11650;48.106;-1.696;2023-12-29T03:12:28;9.80;99.90
22968;DHT22;11650;48.106;-1.696;2023-12-29T03:14:55;9.80;99.90
22968;DHT22;11650;48.106;-1.696;2023-12-29T03:17:21;9.80;99.90
22968;DHT22;11650;48.106;-1.696;2023-12-29T03:19:46;9.90;99.90
22968;DHT22;11650;48.106;-1.696;2023-12-29T03:22:12;9.90;99.90
22968;DHT22;11650;48.106;-1.696;2023-12-29T03:24:40;9.90;99.90
22968;DHT22;11650;48.106;-1.696;2023-12-29T03:27:05;9.80;99.90
22968;DHT22;11650;48.106;-1.696;2023-12-29T03:29:31;9.80;99.90
22968;DHT22;11650;48.106;-1.696;2023-12-29T03:31:56;9.90;99.90
22968;DHT22;11650;48.106;-1.696;2023-12-29T03:34:22;9.90;99.90
22968;DHT22;11650;48.106;-1.696;2023-12-29T03:36:47;9.90;99.90
22968;DHT22;11650;48.106;-1.696;2023-12-29T03:39:13;9.80;99.90
22968;DHT22;11650;48.106;-1.696;2023-12-29T03:41:38;9.90;99.90
22968;DHT22;11650;48.106;-1.696;2023-12-29T03:44:04;9.90;99.90
22968;DHT22;11650;48.106;-1.696;2023-12-29T03:46:31;9.80;99.90
22968;DHT22;11650;48.106;-1.696;2023-12-29T03:48:57;9.90;99.90
22968;DHT22;11650;48.106;-1.696;2023-12-29T03:51:22;9.90;99.90
22968;DHT22;11650;48.106;-1.696;2023-12-29T03:53:48;9.80;99.90
22968;DHT22;11650;48.106;-1.696;2023-12-29T03:56:14;9.80;99.90
22968;DHT22;11650;48.106;-1.696;2023-12-29T03:58:41;9.70;99.90
22968;DHT22;11650;48.106;-1.696;2023-12-29T04:01:13;9.70;99.90
22968;DHT22;11650;48.106;-1.696;2023-12-29T04:03:38;9.70;99.90
22968;DHT22;11650;48.106;-1.696;2023-12-29T04:06:04;9.80;99.90
22968;DHT22;11650;48.106;-1.696;2023-12-29T04:08:30;9.80;99.90
22968;DHT22;11650;48.106;-1.696;2023-12-29T04:10:56;9.90;99.90
22968;DHT22;11650;48.106;-1.696;2023-12-29T04:13:21;9.90;99.90
22968;DHT22;11650;48.106;-1.696;2023-12-29T04:15:47;9.90;99.90
22968;DHT22;11650;48.106;-1.696;2023-12-29T04:18:12;9.90;99.90
22968;DHT22;11650;48.106;-1.696;2023-12-29T04:20:38;9.90;99.90
22968;DHT22;11650;48.106;-1.696;2023-12-29T04:23:05;9.90;99.90
22968;DHT22;11650;48.106;-1.696;2023-12-29T04:25:31;9.80;99.90
22968;DHT22;11650;48.106;-1.696;2023-12-29T04:27:57;9.80;99.90
22968;DHT22;11650;48.106;-1.696;2023-12-29T04:30:22;9.90;99.90
22968;DHT22;11650;48.106;-1.696;2023-12-29T04:32:48;9.80;99.90
22968;DHT22;11650;48.106;-1.696;2023-12-29T04:35:13;9.90;99.90
22968;DHT22;11650;48.106;-1.696;2023-12-29T04:37:40;9.90;99.90
22968;DHT22;11650;48.106;-1.696;2023-12-29T04:40:06;9.80;99.90
22968;DHT22;11650;48.106;-1.696;2023-12-29T04:42:31;9.80;99.90
22968;DHT22;11650;48.106;-1.696;2023-12-29T04:44:57;9.90;99.90
22968;DHT22;11650;48.106;-1.696;2023-12-29T04:47:23;9.90;99.90
22968;DHT22;11650;48.106;-1.696;2023-12-29T04:49:48;9.90;99.90
22968;DHT22;11650;48.106;-1.696;2023-12-29T04:52:14;10.00;99.90
22968;DHT22;11650;48.106;-1.696;2023-12-29T04:54:39;10.00;99.90
22968;DHT22;11650;48.106;-1.696;2023-12-29T04:57:04;10.10;99.90
22968;DHT22;11650;48.106;-1.696;2023-12-29T04:59:30;10.10;99.90
22968;DHT22;11650;48.106;-1.696;2023-12-29T05:01:55;10.10;99.90
22968;DHT22;11650;48.106;-1.696;2023-12-29T05:04:21;10.00;99.90
22968;DHT22;11650;48.106;-1.696;2023-12-29T05:06:46;10.10;99.90
22968;DHT22;11650;48.106;-1.696;2023-12-29T05:09:12;10.10;99.90
22968;DHT22;11650;48.106;-1.696;2023-12-29T05:11:37;10.10;99.90
22968;DHT22;11650;48.106;-1.696;2023-12-29T05:14:03;10.20;99.90
22968;DHT22;11650;48.106;-1.696;2023-12-29T05:16:28;10.20;99.90
22968;DHT22;11650;48.106;-1.696;2023-12-29T05:18:54;10.20;99.90
22968;DHT22;11650;48.106;-1.696;2023-12-29T05:21:19;10.30;99.90
22968;DHT22;11650;48.106;-1.696;2023-12-29T05:23:46;10.30;99.90
22968;DHT22;11650;48.106;-1.696;2023-12-29T05:26:12;10.40;99.90
22968;DHT22;11650;48.106;-1.696;2023-12-29T05:28:38;10.40;99.90
22968;DHT22;11650;48.106;-1.696;2023-12-29T05:31:04;10.40;99.90
22968;DHT22;11650;48.106;-1.696;2023-12-29T05:33:32;10.40;99.90
22968;DHT22;11650;48.106;-1.696;2023-12-29T05:35:58;10.40;99.90
22968;DHT22;11650;48.106;-1.696;2023-12-29T05:38:24;10.30;99.90
22968;DHT22;11650;48.106;-1.696;2023-12-29T05:40:50;10.30;99.90
22968;DHT22;11650;48.106;-1.696;2023-12-29T05:43:15;10.30;99.90
22968;DHT22;11650;48.106;-1.696;2023-12-29T05:45:41;10.30;99.90
22968;DHT22;11650;48.106;-1.696;2023-12-29T05:48:07;10.40;99.90
22968;DHT22;11650;48.106;-1.696;2023-12-29T05:50:33;10.40;99.90
22968;DHT22;11650;48.106;-1.696;2023-12-29T05:52:58;10.50;99.90
22968;DHT22;11650;48.106;-1.696;2023-12-29T05:55:24;10.50;99.90
22968;DHT22;11650;48.106;-1.696;2023-12-29T05:57:49;10.50;99.90
22968;DHT22;11650;48.106;-1.696;2023-12-29T06:00:15;10.50;99.90
22968;DHT22;11650;48.106;-1.696;2023-12-29T06:02:41;10.50;99.90
22968;DHT22;11650;48.106;-1.696;2023-12-29T06:05:07;10.50;99.90
22968;DHT22;11650;48.106;-1.696;2023-12-29T06:07:33;10.50;99.90
22968;DHT22;11650;48.106;-1.696;2023-12-29T06:09:59;10.50;99.90
22968;DHT22;11650;48.106;-1.696;2023-12-29T06:12:24;10.40;99.90
22968;DHT22;11650;48.106;-1.696;2023-12-29T06:14:50;10.40;99.90
22968;DHT22;11650;48.106;-1.696;2023-12-29T06:17:15;10.40;99.90
22968;DHT22;11650;48.106;-1.696;2023-12-29T06:19:41;10.30;99.90
22968;DHT22;11650;48.106;-1.696;2023-12-29T06:22:06;10.30;99.90
22968;DHT22;11650;48.106;-1.696;2023-12-29T06:24:40;10.30;99.90
22968;DHT22;11650;48.106;-1.696;2023-12-29T06:27:07;10.30;99.90
22968;DHT22;11650;48.106;-1.696;2023-12-29T06:29:32;10.20;99.90
22968;DHT22;11650;48.106;-1.696;2023-12-29T06:31:58;10.30;99.90
22968;DHT22;11650;48.106;-1.696;2023-12-29T06:34:23;10.30;99.90
22968;DHT22;11650;48.106;-1.696;2023-12-29T06:36:49;10.30;99.90
22968;DHT22;11650;48.106;-1.696;2023-12-29T06:39:14;10.30;99.90
22968;DHT22;11650;48.106;-1.696;2023-12-29T06:41:40;10.30;99.90
22968;DHT22;11650;48.106;-1.696;2023-12-29T06:44:05;10.30;99.90
22968;DHT22;11650;48.106;-1.696;2023-12-29T06:46:31;10.30;99.90
22968;DHT22;11650;48.106;-1.696;2023-12-29T06:48:56;10.30;99.90
22968;DHT22;11650;48.106;-1.696;2023-12-29T06:51:22;10.30;99.90
22968;DHT22;11650;48.106;-1.696;2023-12-29T06:53:48;10.30;99.90
22968;DHT22;11650;48.106;-1.696;2023-12-29T06:56:17;10.20;99.90
22968;DHT22;11650;48.106;-1.696;2023-12-29T06:58:43;10.20;99.90
22968;DHT22;11650;48.106;-1.696;2023-12-29T07:01:09;10.30;99.90
22968;DHT22;11650;48.106;-1.696;2023-12-29T07:03:34;10.30;99.90
22968;DHT22;11650;48.106;-1.696;2023-12-29T07:06:00;10.30;99.90
22968;DHT22;11650;48.106;-1.696;2023-12-29T07:08:26;10.30;99.90
22968;DHT22;11650;48.106;-1.696;2023-12-29T07:10:51;10.20;99.90
22968;DHT22;11650;48.106;-1.696;2023-12-29T07:13:17;10.30;99.90
22968;DHT22;11650;48.106;-1.696;2023-12-29T07:15:43;10.20;99.90
22968;DHT22;11650;48.106;-1.696;2023-12-29T07:18:08;10.20;99.90
22968;DHT22;11650;48.106;-1.696;2023-12-29T07:20:34;10.20;99.90
22968;DHT22;11650;48.106;-1.696;2023-12-29T07:22:59;10.20;99.90
22968;DHT22;11650;48.106;-1.696;2023-12-29T07:25:25;10.20;99.90
22968;DHT22;11650;48.106;-1.696;2023-12-29T07:27:50;10.20;99.90
22968;DHT22;11650;48.106;-1.696;2023-12-29T07:30:18;10.30;99.90
22968;DHT22;11650;48.106;-1.696;2023-12-29T07:32:43;10.40;99.90
22968;DHT22;11650;48.106;-1.696;2023-12-29T07:35:09;10.40;99.90
22968;DHT22;11650;48.106;-1.696;2023-12-29T07:37:34;10.40;99.90
22968;DHT22;11650;48.106;-1.696;2023-12-29T07:40:00;10.40;99.90
22968;DHT22;11650;48.106;-1.696;2023-12-29T07:42:25;10.40;99.90
22968;DHT22;11650;48.106;-1.696;2023-12-29T07:44:51;10.40;99.90
22968;DHT22;11650;48.106;-1.696;2023-12-29T07:47:17;10.40;99.90
22968;DHT22;11650;48.106;-1.696;2023-12-29T07:49:42;10.50;99.90
22968;DHT22;11650;48.106;-1.696;2023-12-29T07:52:08;10.50;99.90
22968;DHT22;11650;48.106;-1.696;2023-12-29T07:54:34;10.50;99.90
22968;DHT22;11650;48.106;-1.696;2023-12-29T07:56:59;10.50;99.90
22968;DHT22;11650;48.106;-1.696;2023-12-29T07:59:25;10.40;99.90
22968;DHT22;11650;48.106;-1.696;2023-12-29T08:01:51;10.30;99.90
22968;DHT22;11650;48.106;-1.696;2023-12-29T08:04:17;10.30;99.90
22968;DHT22;11650;48.106;-1.696;2023-12-29T08:06:43;10.30;99.90
22968;DHT22;11650;48.106;-1.696;2023-12-29T08:09:09;10.40;99.90
22968;DHT22;11650;48.106;-1.696;2023-12-29T08:11:34;10.30;99.90
22968;DHT22;11650;48.106;-1.696;2023-12-29T08:14:00;10.40;99.90
22968;DHT22;11650;48.106;-1.696;2023-12-29T08:16:25;10.30;99.90
22968;DHT22;11650;48.106;-1.696;2023-12-29T08:18:51;10.40;99.90
22968;DHT22;11650;48.106;-1.696;2023-12-29T08:21:17;10.50;99.90
22968;DHT22;11650;48.106;-1.696;2023-12-29T08:23:44;10.40;99.90
22968;DHT22;11650;48.106;-1.696;2023-12-29T08:26:10;10.50;99.90
22968;DHT22;11650;48.106;-1.696;2023-12-29T08:28:35;10.50;99.90
22968;DHT22;11650;48.106;-1.696;2023-12-29T08:31:01;10.50;99.90
22968;DHT22;11650;48.106;-1.696;2023-12-29T08:33:26;10.50;99.90
22968;DHT22;11650;48.106;-1.696;2023-12-29T08:35:52;10.60;99.90
22968;DHT22;11650;48.106;-1.696;2023-12-29T08:38:17;10.60;99.90
22968;DHT22;11650;48.106;-1.696;2023-12-29T08:40:43;10.70;99.90
22968;DHT22;11650;48.106;-1.696;2023-12-29T08:43:08;10.90;99.90
22968;DHT22;11650;48.106;-1.696;2023-12-29T08:45:34;11.00;99.90
22968;DHT22;11650;48.106;-1.696;2023-12-29T08:48:00;11.00;99.90
22968;DHT22;11650;48.106;-1.696;2023-12-29T08:50:26;11.10;99.90
22968;DHT22;11650;48.106;-1.696;2023-12-29T08:52:51;11.10;99.90
22968;DHT22;11650;48.106;-1.696;2023-12-29T08:55:17;11.10;99.90
22968;DHT22;11650;48.106;-1.696;2023-12-29T08:57:42;11.20;99.90
22968;DHT22;11650;48.106;-1.696;2023-12-29T09:00:08;11.20;99.90
22968;DHT22;11650;48.106;-1.696;2023-12-29T09:02:35;11.20;99.90
22968;DHT22;11650;48.106;-1.696;2023-12-29T09:05:00;11.20;99.90
22968;DHT22;11650;48.106;-1.696;2023-12-29T09:07:26;11.30;99.90
22968;DHT22;11650;48.106;-1.696;2023-12-29T09:09:53;11.40;99.90
22968;DHT22;11650;48.106;-1.696;2023-12-29T09:12:19;11.40;99.90
22968;DHT22;11650;48.106;-1.696;2023-12-29T09:14:44;11.40;99.90
22968;DHT22;11650;48.106;-1.696;2023-12-29T09:17:10;11.50;99.90
22968;DHT22;11650;48.106;-1.696;2023-12-29T09:19:36;11.50;99.90
22968;DHT22;11650;48.106;-1.696;2023-12-29T09:22:01;11.60;99.90
22968;DHT22;11650;48.106;-1.696;2023-12-29T09:24:27;11.80;99.90
22968;DHT22;11650;48.106;-1.696;2023-12-29T09:26:53;11.90;99.90
22968;DHT22;11650;48.106;-1.696;2023-12-29T09:29:19;11.90;99.90
22968;DHT22;11650;48.106;-1.696;2023-12-29T09:31:45;12.00;99.90
22968;DHT22;11650;48.106;-1.696;2023-12-29T09:34:10;12.10;99.90
22968;DHT22;11650;48.106;-1.696;2023-12-29T09:36:36;12.10;99.90
22968;DHT22;11650;48.106;-1.696;2023-12-29T09:39:01;12.10;99.90
22968;DHT22;11650;48.106;-1.696;2023-12-29T09:41:28;12.10;99.90
22968;DHT22;11650;48.106;-1.696;2023-12-29T09:43:56;12.00;99.90
22968;DHT22;11650;48.106;-1.696;2023-12-29T09:46:22;12.00;99.90
22968;DHT22;11650;48.106;-1.696;2023-12-29T09:48:48;12.10;99.90
22968;DHT22;11650;48.106;-1.696;2023-12-29T09:51:17;12.10;99.90
22968;DHT22;11650;48.106;-1.696;2023-12-29T09:53:47;12.10;99.90
22968;DHT22;11650;48.106;-1.696;2023-12-29T09:56:13;12.10;99.90
22968;DHT22;11650;48.106;-1.696;2023-12-29T09:58:39;12.10;99.90
22968;DHT22;11650;48.106;-1.696;2023-12-29T10:01:05;12.10;99.90
22968;DHT22;11650;48.106;-1.696;2023-12-29T10:03:32;12.10;99.90
22968;DHT22;11650;48.106;-1.696;2023-12-29T10:05:59;12.10;99.90
22968;DHT22;11650;48.106;-1.696;2023-12-29T10:08:25;12.10;99.90
22968;DHT22;11650;48.106;-1.696;2023-12-29T10:10:51;12.00;99.90
22968;DHT22;11650;48.106;-1.696;2023-12-29T10:13:18;12.00;99.90
22968;DHT22;11650;48.106;-1.696;2023-12-29T10:15:54;12.00;99.90
22968;DHT22;11650;48.106;-1.696;2023-12-29T10:18:30;12.00;99.90
22968;DHT22;11650;48.106;-1.696;2023-12-29T10:23:49;12.10;99.90
22968;DHT22;11650;48.106;-1.696;2023-12-29T10:26:15;12.10;99.90
22968;DHT22;11650;48.106;-1.696;2023-12-29T10:28:41;12.10;99.90
22968;DHT22;11650;48.106;-1.696;2023-12-29T10:31:06;12.10;99.90
22968;DHT22;11650;48.106;-1.696;2023-12-29T10:33:35;12.10;99.90
22968;DHT22;11650;48.106;-1.696;2023-12-29T10:36:02;12.20;99.90
22968;DHT22;11650;48.106;-1.696;2023-12-29T10:38:32;12.20;99.90
22968;DHT22;11650;48.106;-1.696;2023-12-29T10:43:36;12.20;99.90
22968;DHT22;11650;48.106;-1.696;2023-12-29T10:46:08;12.30;99.90
22968;DHT22;11650;48.106;-1.696;2023-12-29T10:48:34;12.40;99.90
22968;DHT22;11650;48.106;-1.696;2023-12-29T10:51:00;12.40;99.90
22968;DHT22;11650;48.106;-1.696;2023-12-29T10:53:29;12.50;99.90
22968;DHT22;11650;48.106;-1.696;2023-12-29T10:55:55;12.60;99.90
22968;DHT22;11650;48.106;-1.696;2023-12-29T10:58:20;12.60;99.90
22968;DHT22;11650;48.106;-1.696;2023-12-29T11:00:46;12.80;99.90
22968;DHT22;11650;48.106;-1.696;2023-12-29T11:03:15;12.90;99.90
22968;DHT22;11650;48.106;-1.696;2023-12-29T11:05:42;12.80;99.90
22968;DHT22;11650;48.106;-1.696;2023-12-29T11:08:17;12.80;99.90
22968;DHT22;11650;48.106;-1.696;2023-12-29T11:10:43;12.90;99.90
22968;DHT22;11650;48.106;-1.696;2023-12-29T11:13:13;12.80;99.90
22968;DHT22;11650;48.106;-1.696;2023-12-29T11:15:42;12.80;99.90
22968;DHT22;11650;48.106;-1.696;2023-12-29T11:18:09;12.80;99.90
22968;DHT22;11650;48.106;-1.696;2023-12-29T11:20:36;12.80;99.90
22968;DHT22;11650;48.106;-1.696;2023-12-29T11:23:03;12.90;99.90
22968;DHT22;11650;48.106;-1.696;2023-12-29T11:25:29;12.80;99.90
22968;DHT22;11650;48.106;-1.696;2023-12-29T11:27:55;12.80;99.90
22968;DHT22;11650;48.106;-1.696;2023-12-29T11:30:21;12.70;99.90
22968;DHT22;11650;48.106;-1.696;2023-12-29T11:33:01;12.70;99.90
22968;DHT22;11650;48.106;-1.696;2023-12-29T11:38:03;12.70;99.90
22968;DHT22;11650;48.106;-1.696;2023-12-29T11:40:36;12.60;99.90
22968;DHT22;11650;48.106;-1.696;2023-12-29T11:43:07;12.60;99.90
22968;DHT22;11650;48.106;-1.696;2023-12-29T11:45:33;12.70;99.90
22968;DHT22;11650;48.106;-1.696;2023-12-29T11:48:02;12.80;99.90
22968;DHT22;11650;48.106;-1.696;2023-12-29T11:50:32;13.00;99.90
22968;DHT22;11650;48.106;-1.696;2023-12-29T11:52:58;13.00;99.90
22968;DHT22;11650;48.106;-1.696;2023-12-29T11:55:27;13.00;99.90
22968;DHT22;11650;48.106;-1.696;2023-12-29T11:57:53;13.00;99.90
22968;DHT22;11650;48.106;-1.696;2023-12-29T12:00:18;13.00;99.90
22968;DHT22;11650;48.106;-1.696;2023-12-29T12:02:44;13.00;99.90
22968;DHT22;11650;48.106;-1.696;2023-12-29T12:05:10;12.90;99.90
22968;DHT22;11650;48.106;-1.696;2023-12-29T12:12:45;12.70;99.90
22968;DHT22;11650;48.106;-1.696;2023-12-29T12:18:10;12.60;99.90
22968;DHT22;11650;48.106;-1.696;2023-12-29T12:20:36;12.50;99.90
22968;DHT22;11650;48.106;-1.696;2023-12-29T12:23:02;12.50;99.90
22968;DHT22;11650;48.106;-1.696;2023-12-29T12:25:30;12.50;99.90
22968;DHT22;11650;48.106;-1.696;2023-12-29T12:28:00;12.50;99.90
22968;DHT22;11650;48.106;-1.696;2023-12-29T12:30:27;12.50;99.90
22968;DHT22;11650;48.106;-1.696;2023-12-29T12:33:00;12.40;99.90
22968;DHT22;11650;48.106;-1.696;2023-12-29T12:35:26;12.40;99.90
22968;DHT22;11650;48.106;-1.696;2023-12-29T12:40:32;12.60;99.90
22968;DHT22;11650;48.106;-1.696;2023-12-29T12:42:58;12.80;99.90
22968;DHT22;11650;48.106;-1.696;2023-12-29T12:45:24;12.90;99.90
22968;DHT22;11650;48.106;-1.696;2023-12-29T12:47:52;13.10;99.90
22968;DHT22;11650;48.106;-1.696;2023-12-29T12:50:18;13.40;99.90
22968;DHT22;11650;48.106;-1.696;2023-12-29T12:52:44;13.50;99.90
22968;DHT22;11650;48.106;-1.696;2023-12-29T12:55:09;13.40;99.90
22968;DHT22;11650;48.106;-1.696;2023-12-29T12:57:35;13.30;99.90
22968;DHT22;11650;48.106;-1.696;2023-12-29T13:00:01;13.10;99.90
22968;DHT22;11650;48.106;-1.696;2023-12-29T13:02:28;13.00;99.90
22968;DHT22;11650;48.106;-1.696;2023-12-29T13:04:54;13.00;99.90
22968;DHT22;11650;48.106;-1.696;2023-12-29T13:07:20;12.90;99.90
22968;DHT22;11650;48.106;-1.696;2023-12-29T13:09:45;12.80;99.90
22968;DHT22;11650;48.106;-1.696;2023-12-29T13:12:12;12.60;99.90
22968;DHT22;11650;48.106;-1.696;2023-12-29T13:14:41;12.50;99.90
22968;DHT22;11650;48.106;-1.696;2023-12-29T13:17:07;12.40;99.90
22968;DHT22;11650;48.106;-1.696;2023-12-29T13:19:33;12.40;99.90
22968;DHT22;11650;48.106;-1.696;2023-12-29T13:21:59;12.40;99.90
22968;DHT22;11650;48.106;-1.696;2023-12-29T13:24:25;12.20;99.90
22968;DHT22;11650;48.106;-1.696;2023-12-29T13:26:51;12.10;99.90
22968;DHT22;11650;48.106;-1.696;2023-12-29T13:29:23;12.10;99.90
22968;DHT22;11650;48.106;-1.696;2023-12-29T13:31:53;12.00;99.90
22968;DHT22;11650;48.106;-1.696;2023-12-29T13:34:21;12.00;99.90
22968;DHT22;11650;48.106;-1.696;2023-12-29T13:36:51;12.00;99.90
22968;DHT22;11650;48.106;-1.696;2023-12-29T13:39:23;11.90;99.90
22968;DHT22;11650;48.106;-1.696;2023-12-29T13:41:49;11.90;99.90
22968;DHT22;11650;48.106;-1.696;2023-12-29T13:44:16;11.90;99.90
22968;DHT22;11650;48.106;-1.696;2023-12-29T13:46:42;11.80;99.90
22968;DHT22;11650;48.106;-1.696;2023-12-29T13:49:08;11.80;99.90
22968;DHT22;11650;48.106;-1.696;2023-12-29T13:51:34;11.80;99.90
22968;DHT22;11650;48.106;-1.696;2023-12-29T13:54:00;11.70;99.90
22968;DHT22;11650;48.106;-1.696;2023-12-29T13:56:26;11.70;99.90
22968;DHT22;11650;48.106;-1.696;2023-12-29T13:58:51;11.90;99.90
22968;DHT22;11650;48.106;-1.696;2023-12-29T14:01:17;11.90;99.90
22968;DHT22;11650;48.106;-1.696;2023-12-29T14:03:46;11.90;99.90
22968;DHT22;11650;48.106;-1.696;2023-12-29T14:06:18;11.80;99.90
22968;DHT22;11650;48.106;-1.696;2023-12-29T14:08:45;11.80;99.90
22968;DHT22;11650;48.106;-1.696;2023-12-29T14:11:11;11.40;99.90
22968;DHT22;11650;48.106;-1.696;2023-12-29T14:13:43;11.40;99.90
22968;DHT22;11650;48.106;-1.696;2023-12-29T14:16:08;11.20;99.90
22968;DHT22;11650;48.106;-1.696;2023-12-29T14:21:03;11.20;99.90
22968;DHT22;11650;48.106;-1.696;2023-12-29T14:23:28;11.20;99.90
22968;DHT22;11650;48.106;-1.696;2023-12-29T14:26:01;11.20;99.90
22968;DHT22;11650;48.106;-1.696;2023-12-29T14:28:27;11.20;99.90
22968;DHT22;11650;48.106;-1.696;2023-12-29T14:31:00;11.20;99.90
22968;DHT22;11650;48.106;-1.696;2023-12-29T14:33:26;11.30;99.90
22968;DHT22;11650;48.106;-1.696;2023-12-29T14:35:52;11.40;99.90
22968;DHT22;11650;48.106;-1.696;2023-12-29T14:38:17;11.40;99.90
22968;DHT22;11650;48.106;-1.696;2023-12-29T14:40:45;11.40;99.90
22968;DHT22;11650;48.106;-1.696;2023-12-29T14:43:10;11.40;99.90
22968;DHT22;11650;48.106;-1.696;2023-12-29T14:45:36;11.40;99.90
22968;DHT22;11650;48.106;-1.696;2023-12-29T14:48:01;11.40;99.90
22968;DHT22;11650;48.106;-1.696;2023-12-29T14:50:27;11.50;99.90
22968;DHT22;11650;48.106;-1.696;2023-12-29T14:52:52;12.40;99.90
22968;DHT22;11650;48.106;-1.696;2023-12-29T14:55:18;12.90;99.90
22968;DHT22;11650;48.106;-1.696;2023-12-29T14:57:45;13.00;99.90
22968;DHT22;11650;48.106;-1.696;2023-12-29T15:00:11;13.30;99.90
22968;DHT22;11650;48.106;-1.696;2023-12-29T15:02:37;13.50;99.90
22968;DHT22;11650;48.106;-1.696;2023-12-29T15:05:02;13.50;99.90
22968;DHT22;11650;48.106;-1.696;2023-12-29T15:07:28;13.60;99.90
22968;DHT22;11650;48.106;-1.696;2023-12-29T15:09:56;13.80;99.90
22968;DHT22;11650;48.106;-1.696;2023-12-29T15:12:21;13.90;99.90
22968;DHT22;11650;48.106;-1.696;2023-12-29T15:14:47;13.80;99.90
22968;DHT22;11650;48.106;-1.696;2023-12-29T15:17:12;13.70;99.90
22968;DHT22;11650;48.106;-1.696;2023-12-29T15:19:38;13.60;99.90
22968;DHT22;11650;48.106;-1.696;2023-12-29T15:22:03;13.50;99.90
22968;DHT22;11650;48.106;-1.696;2023-12-29T15:24:29;13.00;99.90
22968;DHT22;11650;48.106;-1.696;2023-12-29T15:26:54;12.90;99.90
22968;DHT22;11650;48.106;-1.696;2023-12-29T15:29:20;12.60;99.90
22968;DHT22;11650;48.106;-1.696;2023-12-29T15:31:45;12.70;99.90
22968;DHT22;11650;48.106;-1.696;2023-12-29T15:34:12;12.70;99.90
22968;DHT22;11650;48.106;-1.696;2023-12-29T15:36:37;12.70;99.90